sensor_id;sensor_type;location;lat;lon;timestamp;P1;durP1;ratioP1;P2;durP2;ratioP2
20478;SDS011;10398;52.490;13.434;2023-03-21T00:00:39;10.33;;;4.73;;
20478;SDS011;10398;52.490;13.434;2023-03-21T00:03:05;8.33;;;4.47;;
20478;SDS011;10398;52.490;13.434;2023-03-21T00:05:31;8.27;;;4.40;;
20478;SDS011;10398;52.490;13.434;2023-03-21T00:07:57;9.40;;;4.27;;
20478;SDS011;10398;52.490;13.434;2023-03-21T00:10:22;10.33;;;4.53;;
20478;SDS011;10398;52.490;13.434;2023-03-21T00:12:48;8.93;;;4.50;;
20478;SDS011;10398;52.490;13.434;2023-03-21T00:15:22;11.40;;;4.83;;
20478;SDS011;10398;52.490;13.434;2023-03-21T00:17:53;10.50;;;4.53;;
20478;SDS011;10398;52.490;13.434;2023-03-21T00:20:22;7.33;;;4.27;;
20478;SDS011;10398;52.490;13.434;2023-03-21T00:22:48;6.47;;;3.77;;
20478;SDS011;10398;52.490;13.434;2023-03-21T00:25:13;8.33;;;4.47;;
20478;SDS011;10398;52.490;13.434;2023-03-21T00:27:39;8.27;;;4.00;;
20478;SDS011;10398;52.490;13.434;2023-03-21T00:30:05;7.93;;;4.13;;
20478;SDS011;10398;52.490;13.434;2023-03-21T00:32:31;10.97;;;4.17;;
20478;SDS011;10398;52.490;13.434;2023-03-21T00:34:57;13.03;;;6.27;;
20478;SDS011;10398;52.490;13.434;2023-03-21T00:37:22;11.37;;;5.63;;
20478;SDS011;10398;52.490;13.434;2023-03-21T00:39:48;16.37;;;6.80;;
20478;SDS011;10398;52.490;13.434;2023-03-21T00:42:17;12.60;;;5.93;;
20478;SDS011;10398;52.490;13.434;2023-03-21T00:44:43;10.47;;;6.80;;
20478;SDS011;10398;52.490;13.434;2023-03-21T00:47:10;9.00;;;5.93;;
20478;SDS011;10398;52.490;13.434;2023-03-21T00:49:37;10.33;;;5.37;;
20478;SDS011;10398;52.490;13.434;2023-03-21T00:52:03;9.83;;;5.43;;
20478;SDS011;10398;52.490;13.434;2023-03-21T00:54:31;10.30;;;5.93;;
20478;SDS011;10398;52.490;13.434;2023-03-21T00:56:58;11.03;;;5.80;;
20478;SDS011;10398;52.490;13.434;2023-03-21T00:59:23;12.40;;;5.33;;
20478;SDS011;10398;52.490;13.434;2023-03-21T01:01:49;11.43;;;5.90;;
20478;SDS011;10398;52.490;13.434;2023-03-21T01:04:17;10.47;;;6.23;;
20478;SDS011;10398;52.490;13.434;2023-03-21T01:06:43;8.13;;;5.50;;
20478;SDS011;10398;52.490;13.434;2023-03-21T01:09:13;13.33;;;6.37;;
20478;SDS011;10398;52.490;13.434;2023-03-21T01:11:43;12.53;;;6.20;;
20478;SDS011;10398;52.490;13.434;2023-03-21T01:14:10;15.57;;;6.90;;
20478;SDS011;10398;52.490;13.434;2023-03-21T01:16:36;16.53;;;7.60;;
20478;SDS011;10398;52.490;13.434;2023-03-21T01:19:03;14.90;;;6.40;;
20478;SDS011;10398;52.490;13.434;2023-03-21T01:21:32;14.47;;;7.10;;
20478;SDS011;10398;52.490;13.434;2023-03-21T01:23:59;9.40;;;6.37;;
20478;SDS011;10398;52.490;13.434;2023-03-21T01:26:25;14.53;;;6.73;;
20478;SDS011;10398;52.490;13.434;2023-03-21T01:28:52;16.90;;;7.30;;
20478;SDS011;10398;52.490;13.434;2023-03-21T01:31:17;15.67;;;7.60;;
20478;SDS011;10398;52.490;13.434;2023-03-21T01:33:43;13.23;;;7.30;;
20478;SDS011;10398;52.490;13.434;2023-03-21T01:36:30;16.20;;;7.90;;
20478;SDS011;10398;52.490;13.434;2023-03-21T01:38:55;15.93;;;8.20;;
20478;SDS011;10398;52.490;13.434;2023-03-21T01:44:16;19.90;;;8.03;;
20478;SDS011;10398;52.490;13.434;2023-03-21T01:46:44;14.97;;;7.73;;
20478;SDS011;10398;52.490;13.434;2023-03-21T01:49:24;16.20;;;8.50;;
20478;SDS011;10398;52.490;13.434;2023-03-21T01:51:57;12.83;;;7.70;;
20478;SDS011;10398;52.490;13.434;2023-03-21T01:54:33;16.53;;;8.70;;
20478;SDS011;10398;52.490;13.434;2023-03-21T01:57:03;14.90;;;9.23;;
20478;SDS011;10398;52.490;13.434;2023-03-21T01:59:35;23.93;;;10.00;;
20478;SDS011;10398;52.490;13.434;2023-03-21T02:02:07;21.80;;;10.07;;
20478;SDS011;10398;52.490;13.434;2023-03-21T02:04:42;20.50;;;10.83;;
20478;SDS011;10398;52.490;13.434;2023-03-21T02:07:24;19.93;;;10.87;;
20478;SDS011;10398;52.490;13.434;2023-03-21T02:09:58;19.67;;;10.83;;
20478;SDS011;10398;52.490;13.434;2023-03-21T02:12:27;23.60;;;11.17;;
20478;SDS011;10398;52.490;13.434;2023-03-21T02:14:53;18.80;;;10.60;;
20478;SDS011;10398;52.490;13.434;2023-03-21T02:17:26;22.80;;;11.77;;
20478;SDS011;10398;52.490;13.434;2023-03-21T02:28:30;26.23;;;11.73;;
20478;SDS011;10398;52.490;13.434;2023-03-21T02:42:04;20.67;;;12.10;;
20478;SDS011;10398;52.490;13.434;2023-03-21T02:47:12;22.17;;;11.17;;
20478;SDS011;10398;52.490;13.434;2023-03-21T02:49:47;22.30;;;11.50;;
20478;SDS011;10398;52.490;13.434;2023-03-21T02:52:21;22.50;;;11.73;;
20478;SDS011;10398;52.490;13.434;2023-03-21T02:54:50;21.63;;;11.90;;
20478;SDS011;10398;52.490;13.434;2023-03-21T02:57:17;21.37;;;11.77;;
20478;SDS011;10398;52.490;13.434;2023-03-21T02:59:45;23.27;;;12.17;;
20478;SDS011;10398;52.490;13.434;2023-03-21T03:02:14;18.87;;;11.17;;
20478;SDS011;10398;52.490;13.434;2023-03-21T03:04:41;25.63;;;11.80;;
20478;SDS011;10398;52.490;13.434;2023-03-21T03:15:31;26.77;;;12.20;;
20478;SDS011;10398;52.490;13.434;2023-03-21T03:18:19;23.20;;;12.33;;
20478;SDS011;10398;52.490;13.434;2023-03-21T03:21:04;24.27;;;12.20;;
20478;SDS011;10398;52.490;13.434;2023-03-21T03:23:49;24.30;;;12.33;;
20478;SDS011;10398;52.490;13.434;2023-03-21T03:26:26;23.10;;;11.00;;
20478;SDS011;10398;52.490;13.434;2023-03-21T03:29:12;23.50;;;11.50;;
20478;SDS011;10398;52.490;13.434;2023-03-21T03:31:54;29.87;;;12.40;;
20478;SDS011;10398;52.490;13.434;2023-03-21T03:34:28;24.00;;;10.87;;
20478;SDS011;10398;52.490;13.434;2023-03-21T03:37:04;23.90;;;11.87;;
20478;SDS011;10398;52.490;13.434;2023-03-21T03:39:35;23.67;;;11.27;;
20478;SDS011;10398;52.490;13.434;2023-03-21T03:42:15;23.80;;;11.80;;
20478;SDS011;10398;52.490;13.434;2023-03-21T03:44:44;22.63;;;11.20;;
20478;SDS011;10398;52.490;13.434;2023-03-21T03:47:20;25.90;;;12.73;;
20478;SDS011;10398;52.490;13.434;2023-03-21T03:50:01;24.00;;;11.97;;
20478;SDS011;10398;52.490;13.434;2023-03-21T03:52:34;25.90;;;12.03;;
20478;SDS011;10398;52.490;13.434;2023-03-21T03:55:04;28.10;;;11.37;;
20478;SDS011;10398;52.490;13.434;2023-03-21T03:57:30;28.80;;;12.30;;
20478;SDS011;10398;52.490;13.434;2023-03-21T03:59:56;24.00;;;12.00;;
20478;SDS011;10398;52.490;13.434;2023-03-21T04:02:22;27.60;;;12.63;;
20478;SDS011;10398;52.490;13.434;2023-03-21T04:04:48;27.90;;;11.63;;
20478;SDS011;10398;52.490;13.434;2023-03-21T04:07:17;26.47;;;13.00;;
20478;SDS011;10398;52.490;13.434;2023-03-21T04:09:46;24.57;;;12.10;;
20478;SDS011;10398;52.490;13.434;2023-03-21T04:12:12;24.50;;;11.90;;
20478;SDS011;10398;52.490;13.434;2023-03-21T04:14:38;24.37;;;12.37;;
20478;SDS011;10398;52.490;13.434;2023-03-21T04:17:04;24.73;;;11.70;;
20478;SDS011;10398;52.490;13.434;2023-03-21T04:19:29;28.37;;;11.63;;
20478;SDS011;10398;52.490;13.434;2023-03-21T04:21:56;26.97;;;12.60;;
20478;SDS011;10398;52.490;13.434;2023-03-21T04:24:22;31.23;;;12.20;;
20478;SDS011;10398;52.490;13.434;2023-03-21T04:26:47;23.33;;;11.53;;
20478;SDS011;10398;52.490;13.434;2023-03-21T04:29:13;27.17;;;12.37;;
20478;SDS011;10398;52.490;13.434;2023-03-21T04:31:39;25.47;;;12.37;;
20478;SDS011;10398;52.490;13.434;2023-03-21T04:34:05;24.17;;;12.20;;
20478;SDS011;10398;52.490;13.434;2023-03-21T04:36:36;22.57;;;11.60;;
20478;SDS011;10398;52.490;13.434;2023-03-21T04:39:09;23.03;;;12.03;;
20478;SDS011;10398;52.490;13.434;2023-03-21T04:41:42;27.13;;;11.67;;
20478;SDS011;10398;52.490;13.434;2023-03-21T04:44:10;20.97;;;11.10;;
20478;SDS011;10398;52.490;13.434;2023-03-21T04:46:37;26.63;;;12.73;;
20478;SDS011;10398;52.490;13.434;2023-03-21T04:49:03;22.33;;;11.87;;
20478;SDS011;10398;52.490;13.434;2023-03-21T04:51:31;23.33;;;11.67;;
20478;SDS011;10398;52.490;13.434;2023-03-21T04:53:57;30.60;;;12.63;;
20478;SDS011;10398;52.490;13.434;2023-03-21T04:56:23;26.80;;;12.70;;
20478;SDS011;10398;52.490;13.434;2023-03-21T04:58:55;21.93;;;11.43;;
20478;SDS011;10398;52.490;13.434;2023-03-21T05:01:25;25.73;;;11.70;;
20478;SDS011;10398;52.490;13.434;2023-03-21T05:03:58;25.33;;;11.40;;
20478;SDS011;10398;52.490;13.434;2023-03-21T05:06:24;25.50;;;12.00;;
20478;SDS011;10398;52.490;13.434;2023-03-21T05:08:51;20.50;;;11.27;;
20478;SDS011;10398;52.490;13.434;2023-03-21T05:11:20;31.07;;;12.20;;
20478;SDS011;10398;52.490;13.434;2023-03-21T05:13:46;23.97;;;11.43;;
20478;SDS011;10398;52.490;13.434;2023-03-21T05:16:12;28.37;;;11.80;;
20478;SDS011;10398;52.490;13.434;2023-03-21T05:18:37;28.57;;;11.27;;
20478;SDS011;10398;52.490;13.434;2023-03-21T05:21:04;24.00;;;11.93;;
20478;SDS011;10398;52.490;13.434;2023-03-21T05:23:34;25.97;;;11.73;;
20478;SDS011;10398;52.490;13.434;2023-03-21T05:26:05;26.17;;;11.27;;
20478;SDS011;10398;52.490;13.434;2023-03-21T05:28:32;30.63;;;12.00;;
20478;SDS011;10398;52.490;13.434;2023-03-21T05:31:00;29.60;;;12.20;;
20478;SDS011;10398;52.490;13.434;2023-03-21T05:33:27;26.73;;;10.73;;
20478;SDS011;10398;52.490;13.434;2023-03-21T05:35:52;24.90;;;11.13;;
20478;SDS011;10398;52.490;13.434;2023-03-21T05:38:18;25.30;;;11.73;;
20478;SDS011;10398;52.490;13.434;2023-03-21T05:40:47;27.40;;;11.57;;
20478;SDS011;10398;52.490;13.434;2023-03-21T05:43:14;21.53;;;10.67;;
20478;SDS011;10398;52.490;13.434;2023-03-21T05:45:40;26.57;;;11.23;;
20478;SDS011;10398;52.490;13.434;2023-03-21T05:48:05;28.90;;;12.50;;
20478;SDS011;10398;52.490;13.434;2023-03-21T05:50:31;27.00;;;12.70;;
20478;SDS011;10398;52.490;13.434;2023-03-21T05:52:57;27.17;;;11.97;;
20478;SDS011;10398;52.490;13.434;2023-03-21T05:55:23;27.87;;;12.63;;
20478;SDS011;10398;52.490;13.434;2023-03-21T05:57:48;26.00;;;12.60;;
20478;SDS011;10398;52.490;13.434;2023-03-21T06:00:14;26.90;;;12.47;;
20478;SDS011;10398;52.490;13.434;2023-03-21T06:02:41;29.33;;;11.83;;
20478;SDS011;10398;52.490;13.434;2023-03-21T06:05:07;30.03;;;12.33;;
20478;SDS011;10398;52.490;13.434;2023-03-21T06:07:33;30.10;;;12.50;;
20478;SDS011;10398;52.490;13.434;2023-03-21T06:09:59;31.20;;;13.53;;
20478;SDS011;10398;52.490;13.434;2023-03-21T06:12:25;25.27;;;11.97;;
20478;SDS011;10398;52.490;13.434;2023-03-21T06:14:50;32.43;;;12.80;;
20478;SDS011;10398;52.490;13.434;2023-03-21T06:17:16;31.43;;;12.37;;
20478;SDS011;10398;52.490;13.434;2023-03-21T06:19:42;35.03;;;13.37;;
20478;SDS011;10398;52.490;13.434;2023-03-21T06:22:07;26.03;;;12.33;;
20478;SDS011;10398;52.490;13.434;2023-03-21T06:24:33;28.13;;;12.27;;
20478;SDS011;10398;52.490;13.434;2023-03-21T06:26:59;34.03;;;13.77;;
20478;SDS011;10398;52.490;13.434;2023-03-21T06:29:24;28.33;;;12.93;;
20478;SDS011;10398;52.490;13.434;2023-03-21T06:31:50;31.03;;;12.43;;
20478;SDS011;10398;52.490;13.434;2023-03-21T06:34:16;27.83;;;12.27;;
20478;SDS011;10398;52.490;13.434;2023-03-21T06:36:41;30.47;;;12.30;;
20478;SDS011;10398;52.490;13.434;2023-03-21T06:39:08;29.37;;;11.97;;
20478;SDS011;10398;52.490;13.434;2023-03-21T06:41:34;30.83;;;13.23;;
20478;SDS011;10398;52.490;13.434;2023-03-21T06:44:00;33.90;;;12.27;;
20478;SDS011;10398;52.490;13.434;2023-03-21T06:46:26;26.30;;;12.53;;
20478;SDS011;10398;52.490;13.434;2023-03-21T06:48:52;25.07;;;12.30;;
20478;SDS011;10398;52.490;13.434;2023-03-21T06:51:18;29.53;;;12.80;;
20478;SDS011;10398;52.490;13.434;2023-03-21T06:53:44;27.07;;;11.63;;
20478;SDS011;10398;52.490;13.434;2023-03-21T06:56:11;30.93;;;12.83;;
20478;SDS011;10398;52.490;13.434;2023-03-21T06:58:37;29.73;;;12.77;;
20478;SDS011;10398;52.490;13.434;2023-03-21T07:01:04;28.40;;;11.97;;
20478;SDS011;10398;52.490;13.434;2023-03-21T07:03:30;31.33;;;13.17;;
20478;SDS011;10398;52.490;13.434;2023-03-21T07:05:56;31.50;;;13.53;;
20478;SDS011;10398;52.490;13.434;2023-03-21T07:08:22;30.73;;;13.83;;
20478;SDS011;10398;52.490;13.434;2023-03-21T07:10:48;33.60;;;14.40;;
20478;SDS011;10398;52.490;13.434;2023-03-21T07:13:14;32.40;;;13.30;;
20478;SDS011;10398;52.490;13.434;2023-03-21T07:15:40;32.17;;;12.93;;
20478;SDS011;10398;52.490;13.434;2023-03-21T07:18:06;34.83;;;14.63;;
20478;SDS011;10398;52.490;13.434;2023-03-21T07:20:33;31.33;;;14.53;;
20478;SDS011;10398;52.490;13.434;2023-03-21T07:23:02;29.60;;;13.53;;
20478;SDS011;10398;52.490;13.434;2023-03-21T07:25:28;38.67;;;15.40;;
20478;SDS011;10398;52.490;13.434;2023-03-21T07:27:54;32.43;;;14.50;;
20478;SDS011;10398;52.490;13.434;2023-03-21T07:30:20;35.60;;;14.93;;
20478;SDS011;10398;52.490;13.434;2023-03-21T07:32:46;30.67;;;13.47;;
20478;SDS011;10398;52.490;13.434;2023-03-21T07:35:12;33.53;;;13.93;;
20478;SDS011;10398;52.490;13.434;2023-03-21T07:37:40;35.50;;;13.87;;
20478;SDS011;10398;52.490;13.434;2023-03-21T07:40:06;34.00;;;14.90;;
20478;SDS011;10398;52.490;13.434;2023-03-21T07:42:41;36.47;;;14.77;;
20478;SDS011;10398;52.490;13.434;2023-03-21T07:45:07;30.80;;;13.07;;
20478;SDS011;10398;52.490;13.434;2023-03-21T07:47:34;34.30;;;13.33;;
20478;SDS011;10398;52.490;13.434;2023-03-21T07:50:00;34.30;;;13.50;;
20478;SDS011;10398;52.490;13.434;2023-03-21T07:52:28;37.00;;;15.60;;
20478;SDS011;10398;52.490;13.434;2023-03-21T07:54:54;30.00;;;13.77;;
20478;SDS011;10398;52.490;13.434;2023-03-21T07:57:20;30.23;;;13.57;;
20478;SDS011;10398;52.490;13.434;2023-03-21T07:59:46;33.80;;;14.00;;
20478;SDS011;10398;52.490;13.434;2023-03-21T08:02:15;33.43;;;13.60;;
20478;SDS011;10398;52.490;13.434;2023-03-21T08:04:41;33.07;;;13.60;;
20478;SDS011;10398;52.490;13.434;2023-03-21T08:07:11;37.10;;;14.90;;
20478;SDS011;10398;52.490;13.434;2023-03-21T08:09:37;33.63;;;14.90;;
20478;SDS011;10398;52.490;13.434;2023-03-21T08:12:03;32.57;;;14.13;;
20478;SDS011;10398;52.490;13.434;2023-03-21T08:14:29;29.53;;;13.80;;
20478;SDS011;10398;52.490;13.434;2023-03-21T08:16:55;32.43;;;14.03;;
20478;SDS011;10398;52.490;13.434;2023-03-21T08:19:21;29.43;;;12.67;;
20478;SDS011;10398;52.490;13.434;2023-03-21T08:21:47;30.83;;;14.10;;
20478;SDS011;10398;52.490;13.434;2023-03-21T08:24:13;36.60;;;13.97;;
20478;SDS011;10398;52.490;13.434;2023-03-21T08:26:40;29.60;;;13.97;;
20478;SDS011;10398;52.490;13.434;2023-03-21T08:29:06;32.97;;;13.70;;
20478;SDS011;10398;52.490;13.434;2023-03-21T08:31:31;30.57;;;13.20;;
20478;SDS011;10398;52.490;13.434;2023-03-21T08:33:57;31.57;;;13.47;;
20478;SDS011;10398;52.490;13.434;2023-03-21T08:36:23;29.40;;;12.70;;
20478;SDS011;10398;52.490;13.434;2023-03-21T08:38:49;33.60;;;13.87;;
20478;SDS011;10398;52.490;13.434;2023-03-21T08:41:18;28.70;;;12.13;;
20478;SDS011;10398;52.490;13.434;2023-03-21T08:43:46;29.30;;;12.33;;
20478;SDS011;10398;52.490;13.434;2023-03-21T08:46:12;30.80;;;12.50;;
20478;SDS011;10398;52.490;13.434;2023-03-21T08:48:38;33.57;;;14.17;;
20478;SDS011;10398;52.490;13.434;2023-03-21T08:51:04;31.57;;;12.60;;
20478;SDS011;10398;52.490;13.434;2023-03-21T08:53:30;28.73;;;13.07;;
20478;SDS011;10398;52.490;13.434;2023-03-21T08:55:57;30.77;;;12.03;;
20478;SDS011;10398;52.490;13.434;2023-03-21T08:58:22;26.83;;;12.03;;
20478;SDS011;10398;52.490;13.434;2023-03-21T09:00:48;29.27;;;12.77;;
20478;SDS011;10398;52.490;13.434;2023-03-21T09:03:14;26.13;;;11.37;;
20478;SDS011;10398;52.490;13.434;2023-03-21T09:05:40;31.13;;;13.00;;
20478;SDS011;10398;52.490;13.434;2023-03-21T09:08:06;32.10;;;13.00;;
20478;SDS011;10398;52.490;13.434;2023-03-21T09:10:31;32.20;;;12.50;;
20478;SDS011;10398;52.490;13.434;2023-03-21T09:12:57;23.73;;;11.43;;
20478;SDS011;10398;52.490;13.434;2023-03-21T09:15:24;26.53;;;11.60;;
20478;SDS011;10398;52.490;13.434;2023-03-21T09:17:52;25.33;;;11.47;;
20478;SDS011;10398;52.490;13.434;2023-03-21T09:20:21;32.70;;;12.50;;
20478;SDS011;10398;52.490;13.434;2023-03-21T09:22:54;26.87;;;10.80;;
20478;SDS011;10398;52.490;13.434;2023-03-21T09:25:21;29.27;;;11.97;;
20478;SDS011;10398;52.490;13.434;2023-03-21T09:27:48;29.03;;;12.00;;
20478;SDS011;10398;52.490;13.434;2023-03-21T09:30:16;29.67;;;12.30;;
20478;SDS011;10398;52.490;13.434;2023-03-21T09:32:44;27.57;;;11.37;;
20478;SDS011;10398;52.490;13.434;2023-03-21T09:35:12;26.00;;;12.43;;
20478;SDS011;10398;52.490;13.434;2023-03-21T09:37:40;27.33;;;11.20;;
20478;SDS011;10398;52.490;13.434;2023-03-21T09:40:42;30.23;;;12.23;;
20478;SDS011;10398;52.490;13.434;2023-03-21T09:49:02;28.90;;;11.77;;
20478;SDS011;10398;52.490;13.434;2023-03-21T09:51:42;32.83;;;12.27;;
20478;SDS011;10398;52.490;13.434;2023-03-21T09:57:04;26.33;;;12.23;;
20478;SDS011;10398;52.490;13.434;2023-03-21T09:59:38;35.00;;;13.10;;
20478;SDS011;10398;52.490;13.434;2023-03-21T10:05:25;27.63;;;12.43;;
20478;SDS011;10398;52.490;13.434;2023-03-21T10:08:00;33.20;;;12.50;;
20478;SDS011;10398;52.490;13.434;2023-03-21T10:10:35;30.17;;;13.70;;
20478;SDS011;10398;52.490;13.434;2023-03-21T10:13:06;32.80;;;13.37;;
20478;SDS011;10398;52.490;13.434;2023-03-21T10:15:43;30.53;;;12.77;;
20478;SDS011;10398;52.490;13.434;2023-03-21T10:18:11;28.33;;;13.37;;
20478;SDS011;10398;52.490;13.434;2023-03-21T10:20:43;73.77;;;13.97;;
20478;SDS011;10398;52.490;13.434;2023-03-21T10:23:12;30.33;;;13.40;;
20478;SDS011;10398;52.490;13.434;2023-03-21T10:25:56;30.83;;;13.07;;
20478;SDS011;10398;52.490;13.434;2023-03-21T10:28:27;31.50;;;13.77;;
20478;SDS011;10398;52.490;13.434;2023-03-21T10:31:00;27.67;;;13.33;;
20478;SDS011;10398;52.490;13.434;2023-03-21T10:33:32;32.37;;;14.77;;
20478;SDS011;10398;52.490;13.434;2023-03-21T10:36:16;30.77;;;13.07;;
20478;SDS011;10398;52.490;13.434;2023-03-21T10:38:47;28.73;;;13.20;;
20478;SDS011;10398;52.490;13.434;2023-03-21T10:41:16;28.57;;;13.07;;
20478;SDS011;10398;52.490;13.434;2023-03-21T10:43:44;24.93;;;11.93;;
20478;SDS011;10398;52.490;13.434;2023-03-21T10:46:17;26.23;;;11.80;;
20478;SDS011;10398;52.490;13.434;2023-03-21T10:48:51;25.33;;;11.17;;
20478;SDS011;10398;52.490;13.434;2023-03-21T10:51:27;23.30;;;10.73;;
20478;SDS011;10398;52.490;13.434;2023-03-21T10:53:57;25.93;;;11.13;;
20478;SDS011;10398;52.490;13.434;2023-03-21T10:56:26;24.10;;;10.57;;
20478;SDS011;10398;52.490;13.434;2023-03-21T10:58:55;24.27;;;10.30;;
20478;SDS011;10398;52.490;13.434;2023-03-21T11:01:36;25.00;;;11.37;;
20478;SDS011;10398;52.490;13.434;2023-03-21T11:04:18;22.43;;;10.00;;
20478;SDS011;10398;52.490;13.434;2023-03-21T11:06:51;23.13;;;10.43;;
20478;SDS011;10398;52.490;13.434;2023-03-21T11:09:54;30.33;;;11.47;;
20478;SDS011;10398;52.490;13.434;2023-03-21T11:15:14;28.77;;;11.87;;
20478;SDS011;10398;52.490;13.434;2023-03-21T11:17:53;27.37;;;12.03;;
20478;SDS011;10398;52.490;13.434;2023-03-21T11:20:19;26.80;;;12.30;;
20478;SDS011;10398;52.490;13.434;2023-03-21T11:22:45;24.20;;;11.50;;
20478;SDS011;10398;52.490;13.434;2023-03-21T11:25:45;24.90;;;11.83;;
20478;SDS011;10398;52.490;13.434;2023-03-21T11:28:08;25.43;;;11.17;;
20478;SDS011;10398;52.490;13.434;2023-03-21T11:30:49;29.00;;;11.17;;
20478;SDS011;10398;52.490;13.434;2023-03-21T11:33:15;22.70;;;11.30;;
20478;SDS011;10398;52.490;13.434;2023-03-21T11:35:43;25.27;;;11.57;;
20478;SDS011;10398;52.490;13.434;2023-03-21T11:38:25;26.57;;;10.47;;
20478;SDS011;10398;52.490;13.434;2023-03-21T11:40:58;22.73;;;10.90;;
20478;SDS011;10398;52.490;13.434;2023-03-21T11:43:27;24.57;;;11.00;;
20478;SDS011;10398;52.490;13.434;2023-03-21T11:48:22;24.33;;;11.10;;
20478;SDS011;10398;52.490;13.434;2023-03-21T11:50:49;25.77;;;10.17;;
20478;SDS011;10398;52.490;13.434;2023-03-21T11:53:40;19.83;;;9.63;;
20478;SDS011;10398;52.490;13.434;2023-03-21T11:59:00;20.87;;;10.07;;
20478;SDS011;10398;52.490;13.434;2023-03-21T12:01:34;21.50;;;9.40;;
20478;SDS011;10398;52.490;13.434;2023-03-21T12:04:19;19.80;;;9.90;;
20478;SDS011;10398;52.490;13.434;2023-03-21T12:06:52;20.10;;;9.90;;
20478;SDS011;10398;52.490;13.434;2023-03-21T12:14:53;22.33;;;10.53;;
20478;SDS011;10398;52.490;13.434;2023-03-21T12:20:39;18.80;;;8.67;;
20478;SDS011;10398;52.490;13.434;2023-03-21T12:25:44;23.23;;;9.70;;
20478;SDS011;10398;52.490;13.434;2023-03-21T12:37:11;21.83;;;9.77;;
20478;SDS011;10398;52.490;13.434;2023-03-21T12:39:54;19.37;;;9.43;;
20478;SDS011;10398;52.490;13.434;2023-03-21T12:45:47;18.37;;;9.00;;
20478;SDS011;10398;52.490;13.434;2023-03-21T12:48:17;21.40;;;9.20;;
20478;SDS011;10398;52.490;13.434;2023-03-21T12:50:52;22.63;;;10.80;;
20478;SDS011;10398;52.490;13.434;2023-03-21T13:07:30;17.30;;;8.90;;
20478;SDS011;10398;52.490;13.434;2023-03-21T13:10:02;20.53;;;9.43;;
20478;SDS011;10398;52.490;13.434;2023-03-21T13:12:40;21.00;;;10.10;;
20478;SDS011;10398;52.490;13.434;2023-03-21T13:15:27;17.17;;;9.10;;
20478;SDS011;10398;52.490;13.434;2023-03-21T13:20:57;17.27;;;9.33;;
20478;SDS011;10398;52.490;13.434;2023-03-21T13:23:36;18.13;;;7.90;;
20478;SDS011;10398;52.490;13.434;2023-03-21T13:26:03;16.70;;;8.30;;
20478;SDS011;10398;52.490;13.434;2023-03-21T13:28:34;20.43;;;8.67;;
20478;SDS011;10398;52.490;13.434;2023-03-21T13:31:19;18.20;;;7.57;;
20478;SDS011;10398;52.490;13.434;2023-03-21T13:33:49;15.80;;;7.80;;
20478;SDS011;10398;52.490;13.434;2023-03-21T13:36:23;15.23;;;7.60;;
20478;SDS011;10398;52.490;13.434;2023-03-21T13:38:51;15.30;;;6.90;;
20478;SDS011;10398;52.490;13.434;2023-03-21T13:41:41;15.87;;;7.40;;
20478;SDS011;10398;52.490;13.434;2023-03-21T13:46:59;18.07;;;6.73;;
20478;SDS011;10398;52.490;13.434;2023-03-21T13:49:33;12.93;;;6.70;;
20478;SDS011;10398;52.490;13.434;2023-03-21T13:57:19;13.57;;;6.47;;
20478;SDS011;10398;52.490;13.434;2023-03-21T14:00:18;12.93;;;6.47;;
20478;SDS011;10398;52.490;13.434;2023-03-21T14:02:56;13.37;;;6.43;;
20478;SDS011;10398;52.490;13.434;2023-03-21T14:05:33;14.77;;;6.30;;
20478;SDS011;10398;52.490;13.434;2023-03-21T14:08:02;14.73;;;6.90;;
20478;SDS011;10398;52.490;13.434;2023-03-21T14:10:37;14.50;;;6.87;;
20478;SDS011;10398;52.490;13.434;2023-03-21T14:13:06;13.10;;;7.23;;
20478;SDS011;10398;52.490;13.434;2023-03-21T14:15:36;16.03;;;6.77;;
20478;SDS011;10398;52.490;13.434;2023-03-21T14:18:12;14.77;;;6.60;;
20478;SDS011;10398;52.490;13.434;2023-03-21T14:20:40;12.00;;;6.80;;
20478;SDS011;10398;52.490;13.434;2023-03-21T14:23:07;11.17;;;5.73;;
20478;SDS011;10398;52.490;13.434;2023-03-21T14:25:38;10.47;;;5.87;;
20478;SDS011;10398;52.490;13.434;2023-03-21T14:28:27;14.43;;;6.90;;
20478;SDS011;10398;52.490;13.434;2023-03-21T14:30:56;15.97;;;6.70;;
20478;SDS011;10398;52.490;13.434;2023-03-21T14:33:25;10.40;;;6.30;;
20478;SDS011;10398;52.490;13.434;2023-03-21T14:35:51;14.07;;;6.00;;
20478;SDS011;10398;52.490;13.434;2023-03-21T14:38:27;12.30;;;6.10;;
20478;SDS011;10398;52.490;13.434;2023-03-21T14:40:58;14.27;;;7.03;;
20478;SDS011;10398;52.490;13.434;2023-03-21T14:43:25;13.80;;;6.57;;
20478;SDS011;10398;52.490;13.434;2023-03-21T14:45:53;11.67;;;6.17;;
20478;SDS011;10398;52.490;13.434;2023-03-21T14:48:20;16.33;;;8.47;;
20478;SDS011;10398;52.490;13.434;2023-03-21T14:50:54;14.23;;;6.90;;
20478;SDS011;10398;52.490;13.434;2023-03-21T14:53:28;11.70;;;5.97;;
20478;SDS011;10398;52.490;13.434;2023-03-21T14:56:16;13.27;;;6.37;;
20478;SDS011;10398;52.490;13.434;2023-03-21T14:58:47;11.03;;;6.20;;
20478;SDS011;10398;52.490;13.434;2023-03-21T15:01:15;9.87;;;5.47;;
20478;SDS011;10398;52.490;13.434;2023-03-21T15:03:48;15.23;;;6.20;;
20478;SDS011;10398;52.490;13.434;2023-03-21T15:06:16;11.13;;;6.10;;
20478;SDS011;10398;52.490;13.434;2023-03-21T15:08:58;13.67;;;6.33;;
20478;SDS011;10398;52.490;13.434;2023-03-21T15:11:37;13.07;;;6.20;;
20478;SDS011;10398;52.490;13.434;2023-03-21T15:14:04;10.47;;;5.90;;
20478;SDS011;10398;52.490;13.434;2023-03-21T15:16:31;13.80;;;6.77;;
20478;SDS011;10398;52.490;13.434;2023-03-21T15:18:58;10.90;;;6.03;;
20478;SDS011;10398;52.490;13.434;2023-03-21T15:21:30;10.90;;;5.40;;
20478;SDS011;10398;52.490;13.434;2023-03-21T15:24:04;8.37;;;5.07;;
20478;SDS011;10398;52.490;13.434;2023-03-21T15:26:44;8.87;;;5.00;;
20478;SDS011;10398;52.490;13.434;2023-03-21T15:29:12;13.57;;;6.63;;
20478;SDS011;10398;52.490;13.434;2023-03-21T15:31:40;12.33;;;6.00;;
20478;SDS011;10398;52.490;13.434;2023-03-21T15:34:06;11.67;;;5.70;;
20478;SDS011;10398;52.490;13.434;2023-03-21T15:36:49;9.37;;;5.67;;
20478;SDS011;10398;52.490;13.434;2023-03-21T15:39:20;11.37;;;6.57;;
20478;SDS011;10398;52.490;13.434;2023-03-21T15:41:58;11.97;;;6.43;;
20478;SDS011;10398;52.490;13.434;2023-03-21T15:44:26;15.00;;;7.83;;
20478;SDS011;10398;52.490;13.434;2023-03-21T15:46:53;12.07;;;6.30;;
20478;SDS011;10398;52.490;13.434;2023-03-21T15:49:23;16.00;;;6.00;;
20478;SDS011;10398;52.490;13.434;2023-03-21T15:52:23;9.50;;;5.80;;
20478;SDS011;10398;52.490;13.434;2023-03-21T15:54:49;12.77;;;6.43;;
20478;SDS011;10398;52.490;13.434;2023-03-21T15:57:24;7.90;;;5.37;;
20478;SDS011;10398;52.490;13.434;2023-03-21T15:59:58;19.53;;;8.00;;
20478;SDS011;10398;52.490;13.434;2023-03-21T16:02:42;13.13;;;6.27;;
20478;SDS011;10398;52.490;13.434;2023-03-21T16:08:03;15.13;;;7.47;;
20478;SDS011;10398;52.490;13.434;2023-03-21T16:10:45;12.03;;;7.67;;
20478;SDS011;10398;52.490;13.434;2023-03-21T16:13:13;14.10;;;8.20;;
20478;SDS011;10398;52.490;13.434;2023-03-21T16:15:39;13.73;;;7.50;;